createdAt,value
2018-03-15T00:00:32.294Z,18.03
2018-03-15T00:02:59.691Z,14.30
2018-03-15T00:05:27.033Z,14.47
2018-03-15T00:07:54.400Z,19.23
2018-03-15T00:10:21.759Z,16.40
2018-03-15T00:12:49.149Z,13.03
2018-03-15T00:15:16.502Z,20.40
2018-03-15T00:17:43.892Z,15.00
2018-03-15T00:20:11.304Z,14.80
2018-03-15T00:22:38.680Z,15.70
2018-03-15T00:25:06.151Z,18.23
2018-03-15T00:27:33.519Z,16.50
2018-03-15T00:30:00.871Z,15.60
2018-03-15T00:32:28.263Z,15.30
2018-03-15T00:34:55.614Z,13.13
2018-03-15T00:37:22.985Z,18.60
2018-03-15T00:39:50.335Z,14.93
2018-03-15T00:42:17.708Z,17.67
2018-03-15T00:44:45.058Z,18.70
2018-03-15T00:47:12.459Z,15.73
2018-03-15T00:49:39.796Z,16.40
2018-03-15T00:52:07.184Z,17.37
2018-03-15T00:54:34.613Z,21.83
2018-03-15T00:57:01.982Z,22.70
2018-03-15T00:59:29.527Z,20.37
2018-03-15T01:01:56.868Z,15.50
2018-03-15T01:04:24.258Z,17.97
2018-03-15T01:06:51.643Z,14.00
2018-03-15T01:09:19.012Z,18.83
2018-03-15T01:11:46.364Z,14.67
2018-03-15T01:14:13.865Z,20.87
2018-03-15T01:16:41.230Z,17.67
2018-03-15T01:19:08.600Z,18.33
2018-03-15T01:21:35.963Z,17.00
2018-03-15T01:24:03.384Z,14.87
2018-03-15T01:26:30.735Z,16.13
2018-03-15T01:28:58.157Z,18.33
2018-03-15T01:31:25.488Z,16.40
2018-03-15T01:33:52.867Z,17.10
2018-03-15T01:36:20.211Z,18.40
2018-03-15T01:38:47.603Z,17.50
2018-03-15T01:41:14.978Z,20.70
2018-03-15T01:43:42.354Z,23.40
2018-03-15T01:46:09.707Z,20.30
2018-03-15T01:48:37.086Z,20.23
2018-03-15T01:51:04.441Z,19.30
2018-03-15T01:53:31.846Z,17.10
2018-03-15T01:55:59.177Z,19.50
2018-03-15T01:58:26.562Z,20.47
2018-03-15T02:00:53.924Z,23.37
2018-03-15T02:03:21.302Z,21.57
2018-03-15T02:05:48.659Z,21.47
2018-03-15T02:08:16.044Z,22.57
2018-03-15T02:10:43.423Z,19.80
2018-03-15T02:13:10.845Z,21.80
2018-03-15T02:15:38.200Z,28.67
2018-03-15T02:18:05.543Z,23.00
2018-03-15T02:20:32.917Z,21.37
2018-03-15T02:23:00.290Z,21.30
2018-03-15T02:25:27.767Z,21.80
2018-03-15T02:27:55.134Z,23.40
2018-03-15T02:30:22.547Z,21.10
2018-03-15T02:32:49.914Z,24.07
2018-03-15T02:35:17.284Z,21.93
2018-03-15T02:37:44.634Z,25.20
2018-03-15T02:40:12.101Z,23.53
2018-03-15T02:42:39.471Z,22.03
2018-03-15T02:45:06.868Z,22.77
2018-03-15T02:47:34.215Z,23.30
2018-03-15T02:50:01.629Z,23.23
2018-03-15T02:52:28.985Z,24.13
2018-03-15T02:54:56.434Z,19.13
2018-03-15T02:57:23.897Z,22.67
2018-03-15T02:59:51.350Z,22.50
2018-03-15T03:02:18.705Z,21.73
2018-03-15T03:04:46.167Z,24.03
2018-03-15T03:07:13.521Z,20.33
2018-03-15T03:09:40.892Z,24.70
2018-03-15T03:12:08.230Z,27.63
2018-03-15T03:14:35.592Z,23.30
2018-03-15T03:17:03.552Z,26.57
2018-03-15T03:19:30.921Z,22.13
2018-03-15T03:21:58.287Z,25.40
2018-03-15T03:24:25.655Z,23.17
2018-03-15T03:26:53.089Z,23.27
2018-03-15T03:29:20.457Z,25.03
2018-03-15T03:31:47.819Z,25.73
2018-03-15T03:34:15.183Z,25.73
2018-03-15T03:36:42.535Z,25.80
2018-03-15T03:39:09.932Z,26.13
2018-03-15T03:41:37.285Z,26.40
2018-03-15T03:44:04.667Z,27.63
2018-03-15T03:46:32.039Z,27.43
2018-03-15T03:48:59.384Z,29.80
2018-03-15T03:51:26.758Z,28.70
2018-03-15T03:53:54.115Z,28.83
2018-03-15T03:56:21.492Z,28.03
2018-03-15T03:58:48.860Z,28.13
2018-03-15T04:01:16.226Z,27.13
2018-03-15T04:03:43.610Z,26.80
2018-03-15T04:06:11.373Z,26.87
2018-03-15T04:08:38.730Z,24.27
2018-03-15T04:11:06.174Z,25.87
2018-03-15T04:13:33.525Z,26.33
2018-03-15T04:16:00.915Z,28.43
2018-03-15T04:18:28.258Z,28.50
2018-03-15T04:20:55.639Z,30.47
2018-03-15T04:23:22.988Z,29.13
2018-03-15T04:25:50.362Z,26.70
2018-03-15T04:28:17.769Z,27.40
2018-03-15T04:30:45.168Z,27.63
2018-03-15T04:33:12.581Z,26.73
2018-03-15T04:35:39.930Z,26.93
2018-03-15T04:38:07.275Z,31.37
2018-03-15T04:40:34.741Z,26.67
2018-03-15T04:43:02.092Z,27.40
2018-03-15T04:45:29.566Z,27.13
2018-03-15T04:47:56.910Z,26.27
2018-03-15T04:50:24.308Z,25.37
2018-03-15T04:52:51.684Z,29.30
2018-03-15T04:55:19.056Z,30.53
2018-03-15T04:57:46.399Z,29.90
2018-03-15T05:00:13.801Z,31.53
2018-03-15T05:02:41.163Z,28.27
2018-03-15T05:05:08.559Z,26.63
2018-03-15T05:07:35.947Z,29.27
2018-03-15T05:10:03.305Z,31.57
2018-03-15T05:12:30.676Z,30.63
2018-03-15T05:14:58.047Z,29.20
2018-03-15T05:17:25.436Z,29.40
2018-03-15T05:19:52.790Z,31.67
2018-03-15T05:22:20.216Z,27.80
2018-03-15T05:24:47.560Z,29.03
2018-03-15T05:27:14.936Z,34.00
2018-03-15T05:29:42.299Z,28.97
2018-03-15T05:32:09.685Z,29.07
2018-03-15T05:34:37.043Z,29.37
2018-03-15T05:37:04.415Z,29.70
2018-03-15T05:39:31.770Z,27.70
2018-03-15T05:41:59.226Z,33.70
2018-03-15T05:44:26.615Z,28.30
2018-03-15T05:46:53.997Z,32.33
2018-03-15T05:49:21.349Z,28.20
2018-03-15T05:51:48.765Z,35.07
2018-03-15T05:54:16.107Z,30.33
2018-03-15T05:56:43.560Z,29.90
2018-03-15T05:59:11.018Z,31.00
2018-03-15T06:01:38.386Z,32.60
2018-03-15T06:04:05.769Z,29.77
2018-03-15T06:06:33.137Z,33.70
2018-03-15T06:09:00.506Z,28.37
2018-03-15T06:11:27.926Z,30.62
2018-03-15T06:13:55.319Z,31.27
2018-03-15T06:16:22.694Z,32.57
2018-03-15T06:18:50.044Z,32.13
2018-03-15T06:21:17.425Z,30.87
2018-03-15T06:23:44.798Z,30.27
2018-03-15T06:26:12.168Z,30.50
2018-03-15T06:28:39.523Z,31.70
2018-03-15T06:31:06.894Z,31.80
2018-03-15T06:33:34.244Z,32.73
2018-03-15T06:36:01.604Z,39.27
2018-03-15T06:38:29.001Z,32.30
2018-03-15T06:40:56.386Z,43.30
2018-03-15T06:43:23.754Z,39.40
2018-03-15T06:45:51.140Z,39.70
2018-03-15T06:48:18.524Z,40.43
2018-03-15T06:50:45.863Z,40.57
2018-03-15T06:53:13.254Z,35.90
2018-03-15T06:55:40.591Z,37.07
2018-03-15T06:58:07.980Z,33.50
2018-03-15T07:00:35.325Z,34.20
2018-03-15T07:03:02.703Z,46.53
2018-03-15T07:05:30.070Z,42.40
2018-03-15T07:07:57.468Z,36.33
2018-03-15T07:10:24.887Z,34.77
2018-03-15T07:12:52.219Z,39.57
2018-03-15T07:15:19.564Z,66.70
2018-03-15T07:17:46.991Z,77.73
2018-03-15T07:20:14.347Z,44.80
2018-03-15T07:22:41.713Z,49.23
2018-03-15T07:25:09.075Z,42.30
2018-03-15T07:27:36.450Z,41.50
2018-03-15T07:30:03.791Z,43.70
2018-03-15T07:32:31.155Z,47.10
2018-03-15T07:34:58.492Z,59.07
2018-03-15T07:37:25.859Z,66.27
2018-03-15T07:39:53.201Z,66.03
2018-03-15T07:42:20.569Z,70.20
2018-03-15T07:44:47.920Z,67.77
2018-03-15T07:47:15.286Z,45.23
2018-03-15T07:49:42.621Z,31.77
2018-03-15T07:52:09.990Z,36.70
2018-03-15T07:54:37.342Z,36.60
2018-03-15T07:57:04.712Z,34.83
2018-03-15T07:59:32.062Z,37.73
2018-03-15T08:01:59.405Z,34.00
2018-03-15T08:04:26.792Z,30.33
2018-03-15T08:06:54.132Z,37.27
2018-03-15T08:09:21.517Z,35.07
2018-03-15T08:11:48.871Z,32.90
2018-03-15T08:14:16.247Z,33.43
2018-03-15T08:16:43.586Z,32.80
2018-03-15T08:19:10.970Z,33.70
2018-03-15T08:21:38.317Z,31.97
2018-03-15T08:24:05.707Z,37.87
2018-03-15T08:26:33.126Z,32.57
2018-03-15T08:29:00.500Z,33.77
2018-03-15T08:31:27.859Z,33.80
2018-03-15T08:33:55.227Z,33.07
2018-03-15T08:36:22.579Z,35.10
2018-03-15T08:38:49.949Z,32.00
2018-03-15T08:41:17.348Z,30.43
2018-03-15T08:43:44.704Z,27.27
2018-03-15T08:46:12.073Z,32.47
2018-03-15T08:48:39.467Z,27.00
2018-03-15T08:51:06.837Z,29.73
2018-03-15T08:53:34.227Z,30.90
2018-03-15T08:56:01.566Z,29.60
2018-03-15T08:58:28.932Z,30.57
2018-03-15T09:00:56.282Z,29.97
2018-03-15T09:03:23.686Z,32.50
2018-03-15T09:05:51.156Z,29.83
2018-03-15T09:08:18.420Z,32.83
2018-03-15T09:10:45.834Z,30.33
2018-03-15T09:13:13.197Z,33.33
2018-03-15T09:15:40.534Z,30.40
2018-03-15T09:18:07.902Z,22.70
2018-03-15T09:20:35.259Z,29.70
2018-03-15T09:23:02.653Z,28.77
2018-03-15T09:25:30.016Z,23.77
2018-03-15T09:27:57.394Z,25.00
2018-03-15T09:30:24.737Z,25.73
2018-03-15T09:32:52.132Z,21.67
2018-03-15T09:35:19.492Z,25.33
2018-03-15T09:37:46.853Z,23.50
2018-03-15T09:40:14.250Z,23.13
2018-03-15T09:42:41.603Z,20.73
2018-03-15T09:45:09.035Z,27.43
2018-03-15T09:47:36.433Z,20.57
2018-03-15T09:50:03.859Z,18.50
2018-03-15T09:52:31.262Z,23.87
2018-03-15T09:54:58.649Z,19.70
2018-03-15T09:57:26.024Z,19.63
2018-03-15T09:59:53.418Z,19.43
2018-03-15T10:02:20.788Z,24.90
2018-03-15T10:04:48.188Z,44.37
2018-03-15T10:07:15.574Z,21.40
2018-03-15T10:09:42.975Z,25.43
2018-03-15T10:12:10.408Z,19.90
2018-03-15T10:14:37.803Z,17.77
2018-03-15T10:17:05.167Z,17.50
2018-03-15T10:19:32.559Z,25.60
2018-03-15T10:21:59.925Z,17.30
2018-03-15T10:24:27.316Z,21.40
2018-03-15T10:26:54.762Z,20.47
2018-03-15T10:29:22.164Z,16.90
2018-03-15T10:31:49.550Z,20.37
2018-03-15T10:34:16.952Z,30.07
2018-03-15T10:36:44.325Z,19.43
2018-03-15T10:39:11.723Z,23.67
2018-03-15T10:41:39.081Z,21.33
2018-03-15T10:44:06.472Z,18.73
2018-03-15T10:46:33.873Z,11.87
2018-03-15T10:49:01.263Z,13.33
2018-03-15T10:51:28.616Z,10.53
2018-03-15T10:53:56.012Z,11.13
2018-03-15T10:56:23.450Z,14.20
2018-03-15T10:58:50.865Z,11.57
2018-03-15T11:01:22.099Z,11.50
2018-03-15T11:03:50.430Z,11.30
2018-03-15T11:06:23.532Z,12.67
2018-03-15T11:08:56.631Z,13.47
2018-03-15T11:11:24.002Z,12.13
2018-03-15T11:13:51.359Z,10.37
2018-03-15T11:16:18.742Z,12.00
2018-03-15T11:18:46.123Z,12.83
2018-03-15T11:21:13.507Z,11.37
2018-03-15T11:23:40.876Z,14.17
2018-03-15T11:26:08.260Z,11.27
2018-03-15T11:28:35.612Z,10.97
2018-03-15T11:31:03.005Z,16.27
2018-03-15T11:33:30.371Z,11.70
2018-03-15T11:35:57.769Z,12.87
2018-03-15T11:38:25.115Z,12.80
2018-03-15T11:40:52.590Z,13.43
2018-03-15T11:43:19.987Z,10.03
2018-03-15T11:45:47.376Z,12.57
2018-03-15T11:48:14.744Z,14.00
2018-03-15T11:50:42.203Z,10.80
2018-03-15T11:53:09.519Z,11.90
2018-03-15T11:55:36.896Z,10.80
2018-03-15T11:58:04.250Z,12.83
2018-03-15T12:00:31.643Z,10.67
2018-03-15T12:02:59.049Z,11.00
2018-03-15T12:05:26.433Z,11.40
2018-03-15T12:07:53.795Z,12.83
2018-03-15T12:10:21.208Z,9.73
2018-03-15T12:12:48.587Z,10.87
2018-03-15T12:15:15.989Z,13.73
2018-03-15T12:17:43.375Z,12.30
2018-03-15T12:20:10.745Z,10.97
2018-03-15T12:22:38.074Z,11.33
2018-03-15T12:25:05.453Z,8.60
2018-03-15T12:27:32.787Z,8.27
2018-03-15T12:30:00.143Z,10.93
2018-03-15T12:32:27.552Z,10.80
2018-03-15T12:34:54.897Z,10.13
2018-03-15T12:37:22.249Z,12.13
2018-03-15T12:39:49.597Z,10.20
2018-03-15T12:42:16.956Z,12.50
2018-03-15T12:44:44.304Z,11.27
2018-03-15T12:47:11.712Z,15.57
2018-03-15T12:49:39.052Z,18.77
2018-03-15T12:52:06.420Z,9.13
2018-03-15T12:54:33.774Z,10.37
2018-03-15T12:57:01.203Z,11.70
2018-03-15T12:59:28.535Z,11.43
2018-03-15T13:01:55.899Z,11.17
2018-03-15T13:04:23.251Z,13.00
2018-03-15T13:06:50.609Z,10.90
2018-03-15T13:09:17.956Z,14.13
2018-03-15T13:11:45.314Z,15.40
2018-03-15T13:14:12.660Z,11.37
2018-03-15T13:16:40.057Z,13.00
2018-03-15T13:19:07.397Z,15.30
2018-03-15T13:21:34.779Z,11.87
2018-03-15T13:24:02.112Z,14.07
2018-03-15T13:26:29.492Z,11.30
2018-03-15T13:28:56.827Z,12.50
2018-03-15T13:31:24.272Z,12.73
2018-03-15T13:33:51.658Z,15.73
2018-03-15T13:36:19.010Z,12.00
2018-03-15T13:38:46.364Z,12.90
2018-03-15T13:41:13.751Z,12.93
2018-03-15T13:43:41.091Z,12.90
2018-03-15T13:46:08.490Z,13.47
2018-03-15T13:48:35.827Z,14.30
2018-03-15T13:51:03.168Z,15.40
2018-03-15T13:53:30.566Z,15.90
2018-03-15T13:55:57.905Z,14.53
2018-03-15T13:58:25.324Z,15.07
2018-03-15T14:00:52.695Z,15.73
2018-03-15T14:03:20.060Z,15.60
2018-03-15T14:05:47.398Z,13.87
2018-03-15T14:08:14.768Z,14.17
2018-03-15T14:10:42.105Z,14.27
2018-03-15T14:13:09.509Z,16.70
2018-03-15T14:15:36.853Z,15.13
2018-03-15T14:18:04.217Z,15.90
2018-03-15T14:20:31.551Z,16.03
2018-03-15T14:22:58.921Z,19.37
2018-03-15T14:25:26.258Z,15.97
2018-03-15T14:27:53.624Z,16.77
2018-03-15T14:30:20.956Z,16.07
2018-03-15T14:32:48.315Z,14.73
2018-03-15T14:35:15.645Z,15.73
2018-03-15T14:37:43.010Z,16.30
2018-03-15T14:40:10.349Z,16.83
2018-03-15T14:42:37.706Z,17.47
2018-03-15T14:45:05.045Z,16.33
2018-03-15T14:47:32.448Z,17.13
2018-03-15T14:49:59.800Z,15.73
2018-03-15T14:52:27.179Z,17.57
2018-03-15T14:54:54.522Z,18.10
2018-03-15T14:57:21.902Z,15.27
2018-03-15T14:59:49.238Z,19.93
2018-03-15T15:02:16.598Z,13.60
2018-03-15T15:04:44.680Z,21.90
2018-03-15T15:07:12.051Z,15.97
2018-03-15T15:09:39.384Z,14.30
2018-03-15T15:12:06.749Z,17.20
2018-03-15T15:14:34.096Z,18.60
2018-03-15T15:17:01.440Z,16.30
2018-03-15T15:19:28.808Z,16.80
2018-03-15T15:21:56.147Z,20.93
2018-03-15T15:24:23.523Z,20.53
2018-03-15T15:26:50.858Z,14.30
2018-03-15T15:29:18.227Z,16.30
2018-03-15T15:31:45.565Z,15.83
2018-03-15T15:34:12.926Z,15.33
2018-03-15T15:36:40.275Z,15.83
2018-03-15T15:39:07.652Z,14.80
2018-03-15T15:41:34.987Z,17.33
2018-03-15T15:44:02.351Z,16.57
2018-03-15T15:46:29.702Z,18.70
2018-03-15T15:48:57.068Z,13.70
2018-03-15T15:51:24.398Z,12.83
2018-03-15T15:53:51.763Z,14.63
2018-03-15T15:56:19.095Z,13.00
2018-03-15T15:58:46.481Z,15.97
2018-03-15T16:01:13.840Z,24.50
2018-03-15T16:03:41.248Z,16.23
2018-03-15T16:06:08.591Z,15.13
2018-03-15T16:08:35.944Z,13.43
2018-03-15T16:11:03.279Z,13.90
2018-03-15T16:13:30.646Z,12.30
2018-03-15T16:15:57.987Z,13.23
2018-03-15T16:18:25.355Z,14.57
2018-03-15T16:20:52.684Z,13.57
2018-03-15T16:23:20.050Z,24.27
2018-03-15T16:25:47.439Z,14.53
2018-03-15T16:28:14.779Z,14.70
2018-03-15T16:30:42.115Z,16.30
2018-03-15T16:33:09.473Z,11.90
2018-03-15T16:35:36.806Z,14.70
2018-03-15T16:38:04.162Z,14.00
2018-03-15T16:40:31.498Z,13.63
2018-03-15T16:42:58.827Z,15.13
2018-03-15T16:45:26.190Z,13.50
2018-03-15T16:47:53.525Z,17.33
2018-03-15T16:50:20.882Z,11.00
2018-03-15T16:52:48.210Z,12.00
2018-03-15T16:55:15.565Z,11.73
2018-03-15T16:57:42.894Z,13.43
2018-03-15T17:00:10.255Z,12.20
2018-03-15T17:02:37.611Z,11.90
2018-03-15T17:05:04.966Z,13.17
2018-03-15T17:07:32.308Z,11.83
2018-03-15T17:09:59.662Z,13.70
2018-03-15T17:12:27.006Z,12.13
2018-03-15T17:14:54.375Z,13.93
2018-03-15T17:17:21.706Z,12.53
2018-03-15T17:19:49.089Z,11.67
2018-03-15T17:22:16.460Z,12.63
2018-03-15T17:24:44.453Z,10.40
2018-03-15T17:27:11.783Z,12.00
2018-03-15T17:29:39.141Z,12.43
2018-03-15T17:32:06.475Z,15.60
2018-03-15T17:34:33.838Z,12.70
2018-03-15T17:37:01.169Z,17.60
2018-03-15T17:39:28.536Z,12.20
2018-03-15T17:41:55.869Z,14.27
2018-03-15T17:44:23.232Z,12.00
2018-03-15T17:46:50.577Z,11.40
2018-03-15T17:49:17.938Z,13.73
2018-03-15T17:51:45.271Z,10.33
2018-03-15T17:54:12.627Z,23.90
2018-03-15T17:56:39.959Z,11.33
2018-03-15T17:59:07.321Z,9.47
2018-03-15T18:01:34.676Z,11.40
2018-03-15T18:04:02.088Z,10.63
2018-03-15T18:06:29.428Z,12.00
2018-03-15T18:08:56.762Z,14.23
2018-03-15T18:11:24.122Z,14.23
2018-03-15T18:13:51.484Z,12.43
2018-03-15T18:16:18.849Z,12.77
2018-03-15T18:18:46.182Z,16.37
2018-03-15T18:21:13.569Z,11.13
2018-03-15T18:23:40.913Z,17.73
2018-03-15T18:26:08.277Z,13.07
2018-03-15T18:28:35.621Z,21.93
2018-03-15T18:31:02.990Z,25.77
2018-03-15T18:33:31.296Z,16.77
2018-03-15T18:35:58.672Z,20.93
2018-03-15T18:38:26.018Z,68.63
2018-03-15T18:40:53.407Z,63.83
2018-03-15T18:43:20.768Z,51.03
2018-03-15T18:45:48.133Z,74.47
2018-03-15T18:48:15.476Z,71.53
2018-03-15T18:50:42.848Z,59.10
2018-03-15T18:53:10.201Z,76.03
2018-03-15T18:55:37.568Z,63.80
2018-03-15T18:58:04.910Z,27.27
2018-03-15T19:00:32.278Z,26.73
2018-03-15T19:02:59.627Z,20.50
2018-03-15T19:05:26.994Z,14.67
2018-03-15T19:07:54.370Z,17.43
2018-03-15T19:10:21.799Z,21.10
2018-03-15T19:12:49.143Z,16.90
2018-03-15T19:15:16.514Z,22.30
2018-03-15T19:17:43.868Z,18.43
2018-03-15T19:20:11.239Z,19.77
2018-03-15T19:22:38.604Z,23.40
2018-03-15T19:25:05.972Z,18.07
2018-03-15T19:27:33.333Z,20.13
2018-03-15T19:30:00.698Z,16.87
2018-03-15T19:32:28.086Z,24.10
2018-03-15T19:34:55.451Z,18.70
2018-03-15T19:37:22.815Z,12.70
2018-03-15T19:39:50.155Z,18.87
2018-03-15T19:42:17.524Z,26.27
2018-03-15T19:44:44.862Z,32.33
2018-03-15T19:47:12.232Z,23.00
2018-03-15T19:49:39.571Z,25.67
2018-03-15T19:52:06.940Z,20.90
2018-03-15T19:54:34.286Z,22.53
2018-03-15T19:57:01.651Z,30.87
2018-03-15T19:59:29.003Z,22.70
2018-03-15T20:01:56.370Z,22.97
2018-03-15T20:04:23.722Z,23.57
2018-03-15T20:06:51.090Z,26.70
2018-03-15T20:09:18.435Z,24.50
2018-03-15T20:11:45.809Z,31.80
2018-03-15T20:14:13.207Z,30.47
2018-03-15T20:16:40.550Z,26.63
2018-03-15T20:19:13.763Z,35.70
2018-03-15T20:21:41.132Z,27.13
2018-03-15T20:24:14.395Z,27.50
2018-03-15T20:26:48.779Z,26.73
2018-03-15T20:29:16.124Z,20.30
2018-03-15T20:31:43.490Z,20.13
2018-03-15T20:34:10.848Z,20.10
2018-03-15T20:36:38.222Z,19.73
2018-03-15T20:39:11.380Z,19.40
2018-03-15T20:41:38.774Z,27.77
2018-03-15T20:44:06.139Z,31.33
2018-03-15T20:46:39.376Z,22.33
2018-03-15T20:49:11.643Z,17.80
2018-03-15T20:51:39.003Z,21.10
2018-03-15T20:54:06.349Z,21.37
2018-03-15T20:56:33.955Z,17.93
2018-03-15T20:59:01.296Z,22.03
2018-03-15T21:01:28.667Z,23.07
2018-03-15T21:03:56.008Z,20.40
2018-03-15T21:06:23.380Z,20.43
2018-03-15T21:08:50.727Z,17.50
2018-03-15T21:11:18.129Z,18.57
2018-03-15T21:13:45.468Z,21.70
2018-03-15T21:16:12.850Z,17.60
2018-03-15T21:18:40.188Z,15.73
2018-03-15T21:21:07.556Z,14.97
2018-03-15T21:23:34.893Z,14.53
2018-03-15T21:26:02.285Z,14.10
2018-03-15T21:28:29.633Z,13.73
2018-03-15T21:30:56.968Z,11.70
2018-03-15T21:33:24.341Z,10.43
2018-03-15T21:35:51.674Z,12.37
2018-03-15T21:38:19.056Z,11.10
2018-03-15T21:40:46.488Z,12.17
2018-03-15T21:43:13.855Z,15.30
2018-03-15T21:45:41.195Z,13.93
2018-03-15T21:48:08.565Z,14.03
2018-03-15T21:50:35.902Z,13.23
2018-03-15T21:53:03.276Z,13.47
2018-03-15T21:55:30.629Z,12.90
2018-03-15T21:57:58.038Z,10.40
2018-03-15T22:00:25.383Z,12.53
2018-03-15T22:02:53.140Z,11.73
2018-03-15T22:05:20.542Z,13.57
2018-03-15T22:07:47.974Z,13.03
2018-03-15T22:10:15.376Z,13.87
2018-03-15T22:12:42.790Z,13.80
2018-03-15T22:15:10.194Z,15.57
2018-03-15T22:17:37.665Z,15.33
2018-03-15T22:20:05.090Z,19.93
2018-03-15T22:22:32.756Z,17.00
2018-03-15T22:25:00.134Z,15.57
2018-03-15T22:27:27.551Z,14.33
2018-03-15T22:29:54.952Z,14.53
2018-03-15T22:32:22.398Z,15.80
2018-03-15T22:34:49.857Z,17.40
2018-03-15T22:37:17.260Z,17.73
2018-03-15T22:39:44.648Z,17.20
2018-03-15T22:42:12.064Z,17.03
2018-03-15T22:44:39.469Z,17.90
2018-03-15T22:47:06.918Z,19.70
2018-03-15T22:49:34.323Z,18.27
2018-03-15T22:52:01.743Z,18.90
2018-03-15T22:54:29.137Z,20.67
2018-03-15T22:56:56.874Z,16.13
2018-03-15T22:59:24.325Z,19.07
2018-03-15T23:01:51.713Z,19.33
2018-03-15T23:04:19.138Z,17.50
2018-03-15T23:06:46.545Z,16.33
2018-03-15T23:09:14.011Z,19.03
2018-03-15T23:11:41.392Z,17.67
2018-03-15T23:14:08.802Z,35.70
2018-03-15T23:16:36.185Z,19.27
2018-03-15T23:19:03.661Z,17.73
2018-03-15T23:21:31.065Z,19.20
2018-03-15T23:23:58.478Z,15.47
2018-03-15T23:26:25.873Z,21.37
2018-03-15T23:28:53.300Z,22.07
2018-03-15T23:31:20.684Z,18.27
2018-03-15T23:33:48.169Z,19.93
2018-03-15T23:36:15.563Z,12.53
2018-03-15T23:38:42.969Z,14.90
2018-03-15T23:41:10.352Z,19.13
2018-03-15T23:43:37.761Z,18.57
2018-03-15T23:46:05.162Z,15.03
2018-03-15T23:48:32.592Z,16.53
2018-03-15T23:50:59.978Z,16.97
2018-03-15T23:53:27.380Z,15.70
2018-03-15T23:55:54.798Z,13.40
2018-03-15T23:58:22.257Z,14.23
